createdAt,value
2022-09-03T00:01:52.853Z,87.84
2022-09-03T00:04:31.540Z,88.05
2022-09-03T00:07:08.799Z,88.20
2022-09-03T00:09:47.155Z,88.05
2022-09-03T00:12:24.018Z,88.15
2022-09-03T00:14:58.692Z,87.92
2022-09-03T00:18:07.482Z,87.80
2022-09-03T00:21:08.360Z,87.75
2022-09-03T00:23:40.885Z,87.88
2022-09-03T00:26:12.541Z,88.18
2022-09-03T00:29:20.051Z,87.96
2022-09-03T00:31:57.064Z,88.23
2022-09-03T00:34:40.810Z,88.08
2022-09-03T00:37:14.489Z,87.92
2022-09-03T00:39:44.429Z,87.63
2022-09-03T00:42:33.750Z,87.77
2022-09-03T00:45:08.058Z,87.97
2022-09-03T00:48:12.261Z,87.93
2022-09-03T00:51:05.025Z,87.84
2022-09-03T00:53:58.927Z,87.62
2022-09-03T00:56:33.017Z,87.58
2022-09-03T00:59:12.227Z,87.84
2022-09-03T01:02:02.266Z,87.73
2022-09-03T01:04:52.623Z,87.82
2022-09-03T01:07:35.816Z,87.90
2022-09-03T01:10:27.501Z,87.79
2022-09-03T01:13:07.157Z,88.12
2022-09-03T01:15:56.914Z,87.97
2022-09-03T01:18:43.894Z,87.69
2022-09-03T01:21:34.919Z,87.72
2022-09-03T01:24:30.074Z,87.94
2022-09-03T01:27:26.672Z,87.85
2022-09-03T01:30:04.272Z,87.92
2022-09-03T01:32:55.480Z,87.89
2022-09-03T01:35:53.704Z,87.70
2022-09-03T01:38:35.020Z,88.17
2022-09-03T01:41:34.280Z,88.11
2022-09-03T01:44:09.583Z,88.15
2022-09-03T01:46:41.160Z,87.79
2022-09-03T01:49:35.162Z,87.87
2022-09-03T01:52:29.899Z,87.83
2022-09-03T01:55:10.122Z,87.97
2022-09-03T01:57:49.041Z,87.82
2022-09-03T02:00:23.325Z,87.97
2022-09-03T02:02:52.990Z,87.55
2022-09-03T02:05:25.058Z,87.69
2022-09-03T02:08:06.958Z,87.75
2022-09-03T02:10:44.393Z,87.54
2022-09-03T02:13:27.003Z,87.78
2022-09-03T02:16:01.164Z,88.01
2022-09-03T02:18:34.184Z,87.94
2022-09-03T02:21:02.329Z,87.91
2022-09-03T02:23:30.944Z,87.81
2022-09-03T02:26:02.564Z,87.41
2022-09-03T02:28:33.210Z,87.39
2022-09-03T02:31:01.273Z,87.54
2022-09-03T02:33:31.530Z,87.77
2022-09-03T02:35:59.749Z,87.72
2022-09-03T02:38:28.562Z,87.70
2022-09-03T02:40:56.537Z,87.50
2022-09-03T02:43:35.391Z,87.62
2022-09-03T02:46:08.223Z,87.64
2022-09-03T02:48:36.405Z,87.50
2022-09-03T02:51:14.115Z,87.57
2022-09-03T02:53:43.352Z,87.68
2022-09-03T02:56:12.470Z,87.82
2022-09-03T02:58:41.186Z,87.96
2022-09-03T03:01:09.198Z,87.87
2022-09-03T03:03:37.366Z,87.76
2022-09-03T03:06:07.186Z,87.65
2022-09-03T03:08:35.325Z,87.59
2022-09-03T03:11:03.382Z,87.80
2022-09-03T03:13:32.420Z,87.64
2022-09-03T03:16:08.656Z,87.49
2022-09-03T03:18:36.750Z,87.63
2022-09-03T03:21:10.344Z,87.60
2022-09-03T03:23:39.765Z,87.51
2022-09-03T03:26:10.807Z,87.70
2022-09-03T03:28:39.418Z,87.50
2022-09-03T03:31:13.204Z,87.52
2022-09-03T03:33:42.175Z,87.53
2022-09-03T03:36:12.376Z,87.88
2022-09-03T03:38:42.298Z,88.03
2022-09-03T03:41:12.973Z,87.87
2022-09-03T03:43:40.945Z,88.02
2022-09-03T03:46:11.044Z,87.86
2022-09-03T03:48:39.647Z,87.71
2022-09-03T03:51:09.981Z,88.04
2022-09-03T03:53:38.948Z,87.71
2022-09-03T03:56:11.102Z,87.82
2022-09-03T03:58:44.344Z,88.05
2022-09-03T04:01:21.333Z,88.32
2022-09-03T04:03:49.932Z,88.05
2022-09-03T04:06:20.425Z,88.17
2022-09-03T04:08:49.732Z,88.24
2022-09-03T04:11:21.500Z,88.18
2022-09-03T04:13:51.194Z,88.21
2022-09-03T04:16:22.219Z,88.09
2022-09-03T04:18:51.713Z,88.22
2022-09-03T04:21:28.715Z,88.06
2022-09-03T04:23:58.430Z,88.15
2022-09-03T04:26:32.030Z,88.10
2022-09-03T04:29:02.454Z,88.41
2022-09-03T04:31:31.765Z,88.06
2022-09-03T04:34:00.119Z,88.08
2022-09-03T04:36:30.975Z,88.40
2022-09-03T04:39:01.815Z,88.10
2022-09-03T04:41:31.587Z,87.99
2022-09-03T04:44:01.003Z,87.91
2022-09-03T04:46:33.945Z,87.93
2022-09-03T04:49:03.303Z,88.36
2022-09-03T04:51:31.914Z,88.30
2022-09-03T04:54:02.310Z,88.49
2022-09-03T04:56:33.575Z,88.55
2022-09-03T04:59:04.527Z,88.80
2022-09-03T05:01:36.153Z,88.86
2022-09-03T05:04:05.237Z,88.35
2022-09-03T05:06:35.009Z,88.52
2022-09-03T05:09:04.346Z,88.73
2022-09-03T05:11:32.516Z,88.66
2022-09-03T05:14:01.217Z,88.58
2022-09-03T05:16:31.239Z,88.45
2022-09-03T05:19:01.556Z,88.56
2022-09-03T05:21:30.143Z,88.55
2022-09-03T05:24:00.035Z,88.67
2022-09-03T05:26:30.996Z,88.22
2022-09-03T05:29:01.699Z,88.55
2022-09-03T05:31:32.261Z,88.67
2022-09-03T05:34:04.097Z,88.44
2022-09-03T05:36:37.316Z,88.51
2022-09-03T05:39:06.188Z,88.37
2022-09-03T05:41:34.759Z,88.30
2022-09-03T05:44:04.253Z,88.63
2022-09-03T05:46:35.551Z,88.07
2022-09-03T05:49:06.216Z,87.90
2022-09-03T05:51:36.454Z,88.22
2022-09-03T05:54:05.374Z,88.22
2022-09-03T05:56:33.802Z,88.00
2022-09-03T05:59:06.932Z,88.45
2022-09-03T06:01:51.577Z,88.30
2022-09-03T06:04:22.037Z,88.32
2022-09-03T06:06:50.209Z,88.18
2022-09-03T06:09:21.280Z,87.93
2022-09-03T06:11:52.604Z,88.59
2022-09-03T06:14:22.262Z,88.38
2022-09-03T06:16:53.083Z,88.13
2022-09-03T06:19:21.348Z,88.23
2022-09-03T06:21:49.343Z,88.30
2022-09-03T06:24:26.703Z,88.29
2022-09-03T06:26:57.080Z,88.12
2022-09-03T06:29:26.069Z,88.19
2022-09-03T06:31:54.090Z,88.33
2022-09-03T06:34:23.428Z,88.12
2022-09-03T06:36:51.885Z,87.91
2022-09-03T06:39:23.167Z,87.92
2022-09-03T06:41:52.310Z,88.11
2022-09-03T06:44:26.221Z,88.19
2022-09-03T06:46:54.337Z,88.64
2022-09-03T06:49:22.509Z,88.36
2022-09-03T06:51:50.595Z,88.38
2022-09-03T06:54:18.694Z,88.20
2022-09-03T06:56:46.648Z,88.39
2022-09-03T06:59:15.504Z,88.14
2022-09-03T07:01:46.224Z,88.57
2022-09-03T07:04:20.164Z,88.85
2022-09-03T07:06:48.351Z,88.97
2022-09-03T07:09:18.535Z,89.02
2022-09-03T07:11:48.089Z,89.09
2022-09-03T07:14:19.077Z,88.77
2022-09-03T07:16:48.932Z,88.58
2022-09-03T07:19:17.574Z,88.19
2022-09-03T07:21:50.247Z,87.94
2022-09-03T07:24:22.228Z,88.27
2022-09-03T07:26:50.738Z,87.56
2022-09-03T07:29:21.988Z,87.46
2022-09-03T07:31:52.128Z,87.67
2022-09-03T07:34:25.426Z,87.86
2022-09-03T07:36:54.913Z,87.60
2022-09-03T07:39:23.089Z,87.89
2022-09-03T07:41:51.235Z,88.10
2022-09-03T07:44:20.536Z,88.15
2022-09-03T07:46:51.301Z,88.50
2022-09-03T07:49:22.285Z,88.29
2022-09-03T07:51:53.054Z,88.00
2022-09-03T07:54:22.135Z,88.09
2022-09-03T07:56:50.141Z,87.67
2022-09-03T07:59:19.272Z,87.22
2022-09-03T08:01:47.237Z,87.01
2022-09-03T08:04:15.262Z,86.24
2022-09-03T08:06:43.296Z,85.80
2022-09-03T08:09:13.904Z,86.52
2022-09-03T08:11:43.833Z,86.71
2022-09-03T08:14:13.935Z,86.84
2022-09-03T08:16:48.320Z,86.62
2022-09-03T08:19:20.892Z,86.85
2022-09-03T08:21:48.900Z,86.40
2022-09-03T08:24:21.059Z,85.81
2022-09-03T08:26:52.225Z,85.01
2022-09-03T08:29:22.267Z,85.44
2022-09-03T08:31:50.688Z,85.11
2022-09-03T08:34:19.237Z,84.43
2022-09-03T08:36:47.667Z,84.78
2022-09-03T08:39:16.123Z,85.34
2022-09-03T08:41:53.291Z,86.00
2022-09-03T08:44:51.023Z,85.80
2022-09-03T08:47:38.792Z,85.25
2022-09-03T08:50:19.565Z,84.57
2022-09-03T08:52:55.031Z,84.49
2022-09-03T08:55:26.247Z,84.97
2022-09-03T08:57:57.886Z,84.50
2022-09-03T09:00:35.269Z,83.95
2022-09-03T09:03:45.638Z,84.03
2022-09-03T09:06:38.632Z,84.40
2022-09-03T09:09:15.712Z,84.08
2022-09-03T09:12:11.723Z,84.21
2022-09-03T09:15:02.805Z,84.43
2022-09-03T09:18:02.950Z,84.95
2022-09-03T09:20:49.611Z,84.55
2022-09-03T09:23:33.571Z,84.94
2022-09-03T09:26:05.646Z,84.96
2022-09-03T09:28:37.728Z,84.66
2022-09-03T09:31:12.666Z,84.07
2022-09-03T09:33:40.962Z,83.64
2022-09-03T09:36:13.801Z,83.33
2022-09-03T09:38:43.269Z,83.33
2022-09-03T09:41:20.385Z,83.78
2022-09-03T09:43:48.388Z,84.31
2022-09-03T09:46:30.881Z,84.09
2022-09-03T09:48:59.010Z,83.84
2022-09-03T09:51:31.946Z,84.39
2022-09-03T09:54:08.833Z,84.56
2022-09-03T09:56:36.785Z,84.37
2022-09-03T09:59:10.046Z,84.12
2022-09-03T10:01:44.910Z,84.12
2022-09-03T10:04:33.014Z,84.18
2022-09-03T10:07:25.398Z,83.28
2022-09-03T10:10:07.130Z,82.90
2022-09-03T10:12:45.651Z,82.34
2022-09-03T10:15:29.079Z,83.38
2022-09-03T10:18:00.172Z,83.77
2022-09-03T10:20:47.459Z,82.88
2022-09-03T10:23:28.452Z,82.81
2022-09-03T10:26:13.450Z,83.18
2022-09-03T10:28:43.061Z,83.49
2022-09-03T10:31:36.973Z,82.25
2022-09-03T10:34:18.862Z,82.48
2022-09-03T10:36:59.757Z,82.04
2022-09-03T10:39:51.626Z,82.12
2022-09-03T10:42:43.712Z,81.27
2022-09-03T10:45:29.123Z,80.35
2022-09-03T10:48:16.226Z,77.98
2022-09-03T10:51:05.926Z,78.31
2022-09-03T10:54:18.936Z,78.73
2022-09-03T10:57:17.634Z,77.55
2022-09-03T11:00:05.951Z,75.85
2022-09-03T11:02:59.054Z,74.24
2022-09-03T11:05:38.790Z,74.36
2022-09-03T11:08:17.169Z,73.74
2022-09-03T11:10:58.861Z,72.45
2022-09-03T11:13:54.246Z,72.62
2022-09-03T11:16:34.436Z,71.95
2022-09-03T11:19:05.805Z,71.72
2022-09-03T11:21:38.198Z,70.98
2022-09-03T11:24:13.746Z,70.68
2022-09-03T11:26:46.149Z,71.58
2022-09-03T11:29:32.680Z,70.99
2022-09-03T11:32:11.120Z,71.11
2022-09-03T11:34:51.457Z,69.77
2022-09-03T11:37:21.472Z,69.22
2022-09-03T11:40:08.905Z,68.25
2022-09-03T11:42:41.207Z,68.21
2022-09-03T11:45:21.360Z,68.22
2022-09-03T11:47:52.057Z,68.07
2022-09-03T11:50:23.018Z,67.67
2022-09-03T11:52:54.422Z,67.23
2022-09-03T11:55:43.358Z,66.88
2022-09-03T11:58:27.308Z,67.00
2022-09-03T12:00:56.764Z,67.74
2022-09-03T12:03:47.792Z,67.66
2022-09-03T12:06:34.093Z,67.43
2022-09-03T12:09:22.352Z,67.55
2022-09-03T12:12:29.230Z,68.09
2022-09-03T12:15:51.299Z,68.53
2022-09-03T12:18:31.364Z,68.22
2022-09-03T12:21:00.378Z,67.73
2022-09-03T12:23:30.891Z,67.98
2022-09-03T12:26:15.184Z,68.23
2022-09-03T12:28:50.135Z,67.52
2022-09-03T12:31:21.871Z,67.27
2022-09-03T12:34:07.902Z,67.38
2022-09-03T12:36:48.135Z,67.20
2022-09-03T12:42:20.955Z,67.61
2022-09-03T12:44:49.748Z,66.66
2022-09-03T12:47:38.123Z,66.48
2022-09-03T12:50:12.507Z,67.42
2022-09-03T12:52:54.649Z,67.69
2022-09-03T12:55:27.488Z,66.99
2022-09-03T12:58:05.154Z,66.93
2022-09-03T13:00:37.594Z,66.23
2022-09-03T13:03:19.318Z,66.74
2022-09-03T13:05:57.303Z,66.34
2022-09-03T13:08:33.964Z,66.91
2022-09-03T13:11:05.387Z,66.56
2022-09-03T13:13:37.263Z,65.74
2022-09-03T13:16:11.309Z,65.53
2022-09-03T13:18:45.425Z,63.93
2022-09-03T13:21:22.605Z,64.55
2022-09-03T13:24:08.803Z,65.91
2022-09-03T13:26:49.810Z,65.83
2022-09-03T13:29:40.495Z,65.92
2022-09-03T13:32:31.190Z,65.70
2022-09-03T13:35:07.201Z,66.13
2022-09-03T13:37:45.524Z,65.24
2022-09-03T13:40:31.807Z,65.95
2022-09-03T13:43:27.149Z,65.54
2022-09-03T13:46:01.906Z,66.32
2022-09-03T13:49:01.029Z,66.39
2022-09-03T13:52:04.293Z,66.25
2022-09-03T13:54:49.001Z,66.13
2022-09-03T13:57:24.190Z,66.87
2022-09-03T14:00:11.022Z,66.59
2022-09-03T14:03:07.214Z,66.49
2022-09-03T14:06:03.342Z,66.79
2022-09-03T14:09:02.282Z,66.36
2022-09-03T14:11:51.926Z,66.38
2022-09-03T14:14:49.369Z,67.91
2022-09-03T14:17:23.917Z,68.21
2022-09-03T14:20:07.924Z,68.38
2022-09-03T14:22:48.457Z,67.52
2022-09-03T14:25:19.734Z,67.97
2022-09-03T14:27:48.764Z,67.74
2022-09-03T14:30:16.713Z,67.08
2022-09-03T14:32:57.938Z,67.19
2022-09-03T14:35:47.294Z,67.53
2022-09-03T14:38:20.539Z,67.84
2022-09-03T14:41:13.970Z,67.31
2022-09-03T14:43:56.412Z,67.48
2022-09-03T14:46:35.585Z,67.42
2022-09-03T14:49:18.933Z,67.23
2022-09-03T14:51:52.848Z,67.21
2022-09-03T14:54:40.036Z,67.54
2022-09-03T14:58:04.804Z,68.13
2022-09-03T15:01:01.829Z,68.12
2022-09-03T15:03:54.800Z,68.00
2022-09-03T15:06:34.734Z,68.11
2022-09-03T15:09:37.350Z,68.66
2022-09-03T15:12:30.878Z,67.97
2022-09-03T15:15:06.622Z,68.22
2022-09-03T15:17:55.836Z,68.75
2022-09-03T15:20:52.564Z,68.73
2022-09-03T15:23:37.821Z,69.01
2022-09-03T15:26:47.427Z,68.88
2022-09-03T15:29:28.127Z,69.11
2022-09-03T15:32:05.314Z,69.21
2022-09-03T15:35:05.543Z,69.46
2022-09-03T15:37:49.132Z,69.74
2022-09-03T15:40:26.490Z,70.00
2022-09-03T15:43:30.140Z,69.95
2022-09-03T15:46:13.939Z,70.03
2022-09-03T15:48:45.078Z,70.05
2022-09-03T15:51:36.689Z,70.26
2022-09-03T15:54:16.328Z,69.85
2022-09-03T15:56:59.959Z,69.78
2022-09-03T15:59:58.789Z,70.23
2022-09-03T16:02:33.750Z,70.21
2022-09-03T16:05:08.907Z,70.27
2022-09-03T16:07:36.902Z,70.36
2022-09-03T16:10:30.495Z,70.41
2022-09-03T16:13:38.717Z,70.30
2022-09-03T16:16:11.510Z,70.69
2022-09-03T16:18:49.916Z,70.35
2022-09-03T16:21:38.940Z,70.22
2022-09-03T16:24:19.186Z,70.68
2022-09-03T16:26:47.102Z,70.95
2022-09-03T16:29:17.987Z,71.59
2022-09-03T16:32:05.031Z,72.49
2022-09-03T16:35:10.288Z,72.38
2022-09-03T16:38:22.556Z,71.81
2022-09-03T16:41:18.951Z,71.56
2022-09-03T16:44:22.908Z,71.33
2022-09-03T16:47:10.430Z,71.55
2022-09-03T16:49:51.764Z,71.77
2022-09-03T16:52:44.862Z,71.89
2022-09-03T16:55:24.913Z,72.37
2022-09-03T16:58:19.886Z,72.43
2022-09-03T17:01:17.321Z,72.78
2022-09-03T17:03:52.555Z,72.66
2022-09-03T17:06:50.998Z,72.41
2022-09-03T17:09:34.728Z,72.42
2022-09-03T17:12:07.931Z,72.43
2022-09-03T17:14:38.812Z,71.88
2022-09-03T17:17:36.079Z,71.62
2022-09-03T17:20:47.167Z,71.55
2022-09-03T17:23:29.286Z,71.84
2022-09-03T17:26:00.470Z,71.55
2022-09-03T17:28:43.422Z,71.21
2022-09-03T17:31:51.812Z,71.78
2022-09-03T17:34:41.906Z,72.02
2022-09-03T17:37:34.785Z,72.18
2022-09-03T17:40:27.748Z,71.68
2022-09-03T17:43:17.187Z,71.04
2022-09-03T17:46:13.708Z,71.69
2022-09-03T17:48:50.667Z,72.65
2022-09-03T17:51:24.443Z,72.47
2022-09-03T17:53:59.535Z,71.94
2022-09-03T17:56:33.840Z,71.78
2022-09-03T17:59:15.656Z,72.15
2022-09-03T18:02:25.304Z,72.25
2022-09-03T18:05:03.423Z,72.70
2022-09-03T18:07:54.915Z,72.58
2022-09-03T18:10:45.291Z,72.28
2022-09-03T18:13:23.522Z,72.07
2022-09-03T18:16:06.552Z,72.24
2022-09-03T18:18:42.986Z,72.21
2022-09-03T18:21:32.913Z,71.96
2022-09-03T18:24:23.121Z,71.60
2022-09-03T18:27:17.955Z,71.93
2022-09-03T18:30:25.214Z,72.75
2022-09-03T18:33:11.876Z,73.13
2022-09-03T18:35:58.439Z,73.26
2022-09-03T18:38:49.755Z,73.11
2022-09-03T18:41:59.693Z,73.40
2022-09-03T18:44:46.329Z,72.88
2022-09-03T18:48:05.476Z,73.04
2022-09-03T18:51:12.158Z,73.34
2022-09-03T18:54:27.133Z,73.56
2022-09-03T18:57:13.796Z,73.68
2022-09-03T19:00:00.536Z,74.09
2022-09-03T19:03:06.186Z,73.68
2022-09-03T19:05:56.926Z,73.80
2022-09-03T19:08:55.615Z,74.25
2022-09-03T19:11:56.048Z,74.77
2022-09-03T19:14:56.847Z,74.77
2022-09-03T19:18:25.748Z,75.01
2022-09-03T19:21:23.404Z,75.39
2022-09-03T19:24:15.949Z,75.65
2022-09-03T19:27:39.523Z,75.98
2022-09-03T19:30:40.522Z,76.22
2022-09-03T19:33:42.371Z,76.30
2022-09-03T19:36:34.155Z,75.51
2022-09-03T19:39:36.069Z,75.90
2022-09-03T19:42:37.812Z,76.10
2022-09-03T19:45:41.444Z,75.98
2022-09-03T19:48:28.087Z,76.32
2022-09-03T19:51:43.917Z,75.99
2022-09-03T19:54:30.733Z,76.01
2022-09-03T19:57:17.435Z,75.85
2022-09-03T20:00:08.103Z,75.94
2022-09-03T20:03:00.852Z,76.25
2022-09-03T20:05:47.694Z,76.33
2022-09-03T20:08:35.863Z,76.50
2022-09-03T20:11:05.532Z,76.09
2022-09-03T20:13:54.573Z,76.03
2022-09-03T20:17:13.876Z,76.64
2022-09-03T20:20:03.409Z,76.66
2022-09-03T20:22:39.971Z,77.16
2022-09-03T20:25:26.890Z,77.27
2022-09-03T20:28:00.732Z,77.52
2022-09-03T20:30:42.388Z,77.98
2022-09-03T20:33:22.978Z,77.76
2022-09-03T20:36:29.715Z,78.01
2022-09-03T20:39:15.866Z,78.29
2022-09-03T20:42:13.572Z,78.44
2022-09-03T20:44:52.918Z,78.43
2022-09-03T20:47:28.188Z,78.44
2022-09-03T20:50:15.272Z,78.41
2022-09-03T20:52:49.045Z,78.22
2022-09-03T20:55:33.561Z,78.44
2022-09-03T20:58:18.590Z,79.05
2022-09-03T21:00:55.049Z,79.11
2022-09-03T21:03:28.570Z,79.61
2022-09-03T21:06:21.496Z,79.51
2022-09-03T21:08:55.182Z,79.76
2022-09-03T21:11:32.620Z,80.01
2022-09-03T21:14:21.929Z,80.17
2022-09-03T21:17:00.252Z,80.14
2022-09-03T21:19:43.924Z,80.01
2022-09-03T21:22:39.883Z,79.95
2022-09-03T21:25:14.135Z,80.02
2022-09-03T21:27:48.851Z,80.09
2022-09-03T21:30:19.610Z,80.50
2022-09-03T21:33:24.341Z,80.31
2022-09-03T21:36:01.867Z,80.28
2022-09-03T21:38:35.679Z,80.04
2022-09-03T21:41:14.791Z,80.40
2022-09-03T21:44:12.469Z,80.55
2022-09-03T21:46:58.995Z,80.47
2022-09-03T21:49:33.649Z,80.52
2022-09-03T21:52:12.968Z,80.69
2022-09-03T21:54:41.146Z,81.09
2022-09-03T21:57:22.319Z,81.28
2022-09-03T22:00:19.795Z,81.12
2022-09-03T22:02:50.142Z,81.15
2022-09-03T22:05:18.995Z,81.36
2022-09-03T22:08:18.013Z,81.28
2022-09-03T22:10:51.756Z,81.59
2022-09-03T22:13:44.028Z,81.46
2022-09-03T22:16:23.815Z,81.51
2022-09-03T22:18:54.234Z,82.09
2022-09-03T22:22:11.124Z,82.38
2022-09-03T22:25:04.804Z,82.09
2022-09-03T22:27:50.567Z,82.07
2022-09-03T22:30:22.561Z,82.12
2022-09-03T22:33:24.942Z,82.21
2022-09-03T22:36:11.843Z,82.35
2022-09-03T22:38:40.963Z,82.69
2022-09-03T22:41:08.802Z,82.83
2022-09-03T22:43:52.397Z,82.59
2022-09-03T22:46:23.634Z,82.63
2022-09-03T22:49:28.049Z,82.56
2022-09-03T22:52:25.344Z,82.56
2022-09-03T22:55:02.801Z,82.20
2022-09-03T22:57:37.264Z,82.51
2022-09-03T23:00:09.109Z,82.50
2022-09-03T23:02:40.497Z,82.48
2022-09-03T23:05:23.588Z,82.70
2022-09-03T23:08:09.723Z,82.52
2022-09-03T23:10:53.972Z,82.38
2022-09-03T23:13:46.954Z,82.43
2022-09-03T23:16:52.992Z,82.52
2022-09-03T23:19:40.628Z,82.53
2022-09-03T23:22:40.863Z,82.63
2022-09-03T23:25:20.202Z,82.80
2022-09-03T23:27:58.809Z,82.83
2022-09-03T23:30:26.813Z,83.05
2022-09-03T23:32:59.884Z,83.13
2022-09-03T23:35:30.166Z,83.28
2022-09-03T23:38:19.825Z,83.15
2022-09-03T23:40:49.973Z,83.43
2022-09-03T23:43:23.760Z,83.17
2022-09-03T23:46:00.966Z,82.98
2022-09-03T23:48:53.403Z,82.83
2022-09-03T23:51:39.735Z,82.69
2022-09-03T23:54:19.654Z,82.85
2022-09-03T23:56:50.641Z,83.20
2022-09-03T23:59:57.620Z,83.24
